createdAt,value
2022-07-30T00:01:34.656Z,3.30
2022-07-30T00:04:03.865Z,3.40
2022-07-30T00:06:31.096Z,3.20
2022-07-30T00:08:59.088Z,3.00
2022-07-30T00:11:28.072Z,3.20
2022-07-30T00:13:56.202Z,3.40
2022-07-30T00:16:23.601Z,2.90
2022-07-30T00:18:50.899Z,3.30
2022-07-30T00:21:20.355Z,3.30
2022-07-30T00:24:05.063Z,3.30
2022-07-30T00:26:32.326Z,3.80
2022-07-30T00:28:59.669Z,3.50
2022-07-30T00:31:26.922Z,3.40
2022-07-30T00:33:54.994Z,3.50
2022-07-30T00:36:22.860Z,4.10
2022-07-30T00:38:50.521Z,4.10
2022-07-30T00:41:18.189Z,3.70
2022-07-30T00:43:45.640Z,4.20
2022-07-30T00:46:15.148Z,4.10
2022-07-30T00:48:43.610Z,4.70
2022-07-30T00:51:11.394Z,4.60
2022-07-30T00:53:39.096Z,3.80
2022-07-30T00:56:06.507Z,3.30
2022-07-30T00:58:33.701Z,3.10
2022-07-30T01:01:01.148Z,3.00
2022-07-30T01:03:28.884Z,2.90
2022-07-30T01:05:56.342Z,2.90
2022-07-30T01:08:23.526Z,3.00
2022-07-30T01:10:52.277Z,3.10
2022-07-30T01:13:19.629Z,2.40
2022-07-30T01:15:48.214Z,2.70
2022-07-30T01:18:17.628Z,3.00
2022-07-30T01:20:55.912Z,3.60
2022-07-30T01:23:38.439Z,3.10
2022-07-30T01:26:12.796Z,2.80
2022-07-30T01:28:45.646Z,3.00
2022-07-30T01:31:15.259Z,2.80
2022-07-30T01:33:47.003Z,3.20
2022-07-30T01:36:17.267Z,3.40
2022-07-30T01:38:46.630Z,3.80
2022-07-30T01:41:15.577Z,3.60
2022-07-30T01:43:44.718Z,3.20
2022-07-30T01:46:14.016Z,3.30
2022-07-30T01:48:44.358Z,3.40
2022-07-30T01:51:13.914Z,3.60
2022-07-30T01:53:48.242Z,3.20
2022-07-30T01:56:24.665Z,2.80
2022-07-30T01:58:56.119Z,2.90
2022-07-30T02:01:27.622Z,2.90
2022-07-30T02:04:02.444Z,2.60
2022-07-30T02:06:39.443Z,3.10
2022-07-30T02:09:11.205Z,2.70
2022-07-30T02:12:04.667Z,3.30
2022-07-30T02:14:46.043Z,3.00
2022-07-30T02:17:30.119Z,3.20
2022-07-30T02:20:09.383Z,4.10
2022-07-30T02:22:40.425Z,3.80
2022-07-30T02:25:10.940Z,2.30
2022-07-30T02:27:42.247Z,2.60
2022-07-30T02:30:11.360Z,3.30
2022-07-30T02:32:42.733Z,3.40
2022-07-30T02:35:17.545Z,3.40
2022-07-30T02:37:48.336Z,3.80
2022-07-30T02:40:18.272Z,5.20
2022-07-30T02:42:49.515Z,5.20
2022-07-30T02:45:20.356Z,4.00
2022-07-30T02:47:51.768Z,3.20
2022-07-30T02:50:21.130Z,2.90
2022-07-30T02:52:50.345Z,3.00
2022-07-30T02:55:18.415Z,2.90
2022-07-30T02:57:47.363Z,2.90
2022-07-30T03:00:15.642Z,3.00
2022-07-30T03:02:46.622Z,3.50
2022-07-30T03:05:16.044Z,4.30
2022-07-30T03:07:44.568Z,3.90
2022-07-30T03:10:13.675Z,3.40
2022-07-30T03:12:44.803Z,3.20
2022-07-30T03:15:13.898Z,3.30
2022-07-30T03:17:44.732Z,4.10
2022-07-30T03:20:15.981Z,4.00
2022-07-30T03:22:47.782Z,3.00
2022-07-30T03:25:20.108Z,3.10
2022-07-30T03:27:50.228Z,3.20
2022-07-30T03:30:53.105Z,3.40
2022-07-30T03:33:21.801Z,3.20
2022-07-30T03:35:50.999Z,2.90
2022-07-30T03:38:20.439Z,3.20
2022-07-30T03:40:48.392Z,3.20
2022-07-30T03:43:32.570Z,3.10
2022-07-30T03:46:06.066Z,3.10
2022-07-30T03:48:36.255Z,3.20
2022-07-30T03:51:06.562Z,3.10
2022-07-30T03:53:34.122Z,3.20
2022-07-30T03:56:21.957Z,3.20
2022-07-30T03:59:10.961Z,3.70
2022-07-30T04:01:40.379Z,4.60
2022-07-30T04:04:30.677Z,5.50
2022-07-30T04:06:59.148Z,6.00
2022-07-30T04:09:26.594Z,6.70
2022-07-30T04:11:54.047Z,5.70
2022-07-30T04:14:25.666Z,5.70
2022-07-30T04:17:10.277Z,5.80
2022-07-30T04:19:51.240Z,6.20
2022-07-30T04:22:28.585Z,6.40
2022-07-30T04:24:57.125Z,5.80
2022-07-30T04:27:27.631Z,5.50
2022-07-30T04:29:55.418Z,5.60
2022-07-30T04:32:22.853Z,4.90
2022-07-30T04:34:59.812Z,3.60
2022-07-30T04:37:47.323Z,3.40
2022-07-30T04:40:14.676Z,4.00
2022-07-30T04:42:41.933Z,3.70
2022-07-30T04:45:11.944Z,3.60
2022-07-30T04:47:53.984Z,4.30
2022-07-30T04:50:29.694Z,4.10
2022-07-30T04:52:59.101Z,3.40
2022-07-30T04:55:29.217Z,3.50
2022-07-30T04:57:58.153Z,3.20
2022-07-30T05:00:26.895Z,3.00
2022-07-30T05:02:56.460Z,3.00
2022-07-30T05:05:26.305Z,2.70
2022-07-30T05:07:55.103Z,2.80
2022-07-30T05:10:22.401Z,3.00
2022-07-30T05:12:51.654Z,3.50
2022-07-30T05:15:20.152Z,3.10
2022-07-30T05:17:47.801Z,3.50
2022-07-30T05:20:14.986Z,3.30
2022-07-30T05:23:01.859Z,3.10
2022-07-30T05:25:29.419Z,3.00
2022-07-30T05:28:05.274Z,3.20
2022-07-30T05:30:32.760Z,2.80
2022-07-30T05:33:01.417Z,2.80
2022-07-30T05:35:31.329Z,3.10
2022-07-30T05:38:00.640Z,3.00
2022-07-30T05:40:30.445Z,2.90
2022-07-30T05:43:23.808Z,3.20
2022-07-30T05:45:51.073Z,3.40
2022-07-30T05:48:18.351Z,3.80
2022-07-30T05:50:46.074Z,3.60
2022-07-30T05:53:13.224Z,4.10
2022-07-30T05:56:15.292Z,3.50
2022-07-30T06:01:40.152Z,2.80
2022-07-30T06:04:12.753Z,3.20
2022-07-30T06:06:47.104Z,3.10
2022-07-30T06:09:14.881Z,2.60
2022-07-30T06:11:42.224Z,2.50
2022-07-30T06:14:09.475Z,3.20
2022-07-30T06:16:37.546Z,2.90
2022-07-30T06:19:05.003Z,2.70
2022-07-30T06:22:05.255Z,2.20
2022-07-30T06:24:31.763Z,2.60
2022-07-30T06:27:07.515Z,2.90
2022-07-30T06:29:35.074Z,3.40
2022-07-30T06:32:02.735Z,3.00
2022-07-30T06:34:29.956Z,2.40
2022-07-30T06:36:57.794Z,2.40
2022-07-30T06:39:56.862Z,2.70
2022-07-30T06:42:33.522Z,2.30
2022-07-30T06:45:33.440Z,2.40
2022-07-30T06:48:14.524Z,2.80
2022-07-30T06:50:42.895Z,2.60
2022-07-30T06:53:10.562Z,2.80
2022-07-30T06:55:58.433Z,2.60
2022-07-30T06:58:32.709Z,2.30
2022-07-30T07:01:18.635Z,2.40
2022-07-30T07:03:45.991Z,2.50
2022-07-30T07:06:13.205Z,2.50
2022-07-30T07:08:42.404Z,3.50
2022-07-30T07:11:10.474Z,2.60
2022-07-30T07:13:47.147Z,2.50
2022-07-30T07:16:23.145Z,2.70
2022-07-30T07:18:52.342Z,2.40
2022-07-30T07:21:20.576Z,2.70
2022-07-30T07:23:51.042Z,3.00
2022-07-30T07:26:38.326Z,3.40
2022-07-30T07:29:05.578Z,2.80
2022-07-30T07:32:05.314Z,2.50
2022-07-30T07:34:21.011Z,2.60
2022-07-30T07:36:49.146Z,3.40
2022-07-30T07:39:17.322Z,3.30
2022-07-30T07:41:48.712Z,3.00
2022-07-30T07:44:19.755Z,2.40
2022-07-30T07:46:47.219Z,2.20
2022-07-30T07:49:14.472Z,2.40
2022-07-30T07:51:47.970Z,2.50
2022-07-30T07:56:52.990Z,2.00
2022-07-30T07:59:23.804Z,2.00
2022-07-30T08:02:03.992Z,2.20
2022-07-30T08:05:00.804Z,1.80
2022-07-30T08:07:40.854Z,2.00
2022-07-30T08:10:23.615Z,2.10
2022-07-30T08:12:51.029Z,2.10
2022-07-30T08:15:36.916Z,2.30
2022-07-30T08:18:33.252Z,2.40
2022-07-30T08:21:17.095Z,2.40
2022-07-30T08:23:45.222Z,2.10
2022-07-30T08:26:12.462Z,2.00
2022-07-30T08:28:39.874Z,2.50
2022-07-30T08:31:07.737Z,2.10
2022-07-30T08:33:35.404Z,2.30
2022-07-30T08:36:09.204Z,2.20
2022-07-30T08:38:38.858Z,1.90
2022-07-30T08:41:06.888Z,2.00
2022-07-30T08:43:36.583Z,1.80
2022-07-30T08:46:09.172Z,2.10
2022-07-30T08:49:02.749Z,2.60
2022-07-30T08:51:37.112Z,2.10
2022-07-30T08:54:31.853Z,2.20
2022-07-30T08:56:59.932Z,2.20
2022-07-30T09:00:00.268Z,2.10
2022-07-30T09:02:16.344Z,2.00
2022-07-30T09:05:00.505Z,2.20
2022-07-30T09:07:27.845Z,2.20
2022-07-30T09:09:57.573Z,1.60
2022-07-30T09:12:31.836Z,1.90
2022-07-30T09:15:20.548Z,2.00
2022-07-30T09:18:02.429Z,2.00
2022-07-30T09:20:34.902Z,2.20
2022-07-30T09:23:05.973Z,2.60
2022-07-30T09:25:52.651Z,1.90
2022-07-30T09:28:38.433Z,2.40
2022-07-30T09:31:15.810Z,2.20
2022-07-30T09:34:32.329Z,2.20
2022-07-30T09:37:18.402Z,2.10
2022-07-30T09:39:59.417Z,1.80
2022-07-30T09:42:46.208Z,2.00
2022-07-30T09:45:16.428Z,2.00
2022-07-30T09:47:48.657Z,1.90
2022-07-30T09:50:30.445Z,1.90
2022-07-30T09:53:11.756Z,2.10
2022-07-30T09:55:42.268Z,2.30
2022-07-30T09:58:12.957Z,1.90
2022-07-30T10:00:59.624Z,2.00
2022-07-30T10:03:46.663Z,2.30
2022-07-30T10:06:38.112Z,2.00
2022-07-30T10:09:51.714Z,2.10
2022-07-30T10:12:23.997Z,2.10
2022-07-30T10:14:54.478Z,2.10
2022-07-30T10:17:22.959Z,1.80
2022-07-30T10:20:09.192Z,2.10
2022-07-30T10:22:50.533Z,1.80
2022-07-30T10:25:27.997Z,1.80
2022-07-30T10:28:11.906Z,2.10
2022-07-30T10:30:39.693Z,1.80
2022-07-30T10:33:08.969Z,2.00
2022-07-30T10:35:57.262Z,2.00
2022-07-30T10:38:32.868Z,2.10
2022-07-30T10:41:15.372Z,1.90
2022-07-30T10:43:54.923Z,2.10
2022-07-30T10:46:44.288Z,1.90
2022-07-30T10:49:18.618Z,2.00
2022-07-30T10:51:49.795Z,1.90
2022-07-30T10:54:41.519Z,1.80
2022-07-30T10:57:08.624Z,1.90
2022-07-30T11:00:00.544Z,2.00
2022-07-30T11:02:30.675Z,2.10
2022-07-30T11:05:17.954Z,2.00
2022-07-30T11:07:47.594Z,2.20
2022-07-30T11:10:35.024Z,2.10
2022-07-30T11:13:04.673Z,2.10
2022-07-30T11:15:51.748Z,2.00
2022-07-30T11:18:18.951Z,1.60
2022-07-30T11:21:21.309Z,1.80
2022-07-30T11:23:49.433Z,2.20
2022-07-30T11:26:51.213Z,2.20
2022-07-30T11:29:50.544Z,1.70
2022-07-30T11:32:33.541Z,1.80
2022-07-30T11:35:23.088Z,1.90
2022-07-30T11:37:57.064Z,1.90
2022-07-30T11:40:26.619Z,1.80
2022-07-30T11:43:34.564Z,1.90
2022-07-30T11:46:29.023Z,1.90
2022-07-30T11:49:08.902Z,2.00
2022-07-30T11:51:46.982Z,2.00
2022-07-30T11:54:14.433Z,2.10
2022-07-30T11:57:04.296Z,1.90
2022-07-30T11:59:31.986Z,1.90
2022-07-30T12:02:02.092Z,1.70
2022-07-30T12:04:30.574Z,2.40
2022-07-30T12:06:57.829Z,2.00
2022-07-30T12:09:30.329Z,2.20
2022-07-30T12:11:58.475Z,2.30
2022-07-30T12:14:25.730Z,1.80
2022-07-30T12:16:54.371Z,1.80
2022-07-30T12:19:21.768Z,1.80
2022-07-30T12:21:53.328Z,2.10
2022-07-30T12:24:26.935Z,1.80
2022-07-30T12:27:07.592Z,2.00
2022-07-30T12:29:35.906Z,1.70
2022-07-30T12:32:03.926Z,1.80
2022-07-30T12:34:31.024Z,1.90
2022-07-30T12:37:09.040Z,2.50
2022-07-30T12:39:36.249Z,2.10
2022-07-30T12:42:03.803Z,1.80
2022-07-30T12:44:44.894Z,2.10
2022-07-30T12:47:25.756Z,2.20
2022-07-30T12:49:54.810Z,1.90
2022-07-30T12:52:27.725Z,2.10
2022-07-30T12:55:16.389Z,1.90
2022-07-30T12:58:02.894Z,2.20
2022-07-30T13:00:36.494Z,2.10
2022-07-30T13:03:22.684Z,2.00
2022-07-30T13:05:55.575Z,1.90
2022-07-30T13:08:59.781Z,2.30
2022-07-30T13:11:39.219Z,2.20
2022-07-30T13:14:06.780Z,2.20
2022-07-30T13:16:35.572Z,2.30
2022-07-30T13:19:07.332Z,2.00
2022-07-30T13:21:35.603Z,2.50
2022-07-30T13:24:02.857Z,2.60
2022-07-30T13:26:30.416Z,2.10
2022-07-30T13:29:01.637Z,2.30
2022-07-30T13:31:43.087Z,2.50
2022-07-30T13:36:38.783Z,2.10
2022-07-30T13:39:06.128Z,1.90
2022-07-30T13:41:34.813Z,2.00
2022-07-30T13:44:02.013Z,2.00
2022-07-30T13:46:29.217Z,2.00
2022-07-30T13:48:56.504Z,2.40
2022-07-30T13:51:23.722Z,2.10
2022-07-30T13:53:51.628Z,2.00
2022-07-30T13:56:19.864Z,1.90
2022-07-30T13:58:48.180Z,2.00
2022-07-30T14:01:17.559Z,2.20
2022-07-30T14:03:49.435Z,2.40
2022-07-30T14:06:19.832Z,2.50
2022-07-30T14:08:47.015Z,2.20
2022-07-30T14:11:14.637Z,2.20
2022-07-30T14:13:41.994Z,2.50
2022-07-30T14:16:22.994Z,2.00
2022-07-30T14:18:57.901Z,1.90
2022-07-30T14:21:25.665Z,1.70
2022-07-30T14:23:53.631Z,1.80
2022-07-30T14:26:20.782Z,2.00
2022-07-30T14:28:48.137Z,2.10
2022-07-30T14:31:15.388Z,2.10
2022-07-30T14:33:42.639Z,1.80
2022-07-30T14:36:10.511Z,2.20
2022-07-30T14:38:40.025Z,1.90
2022-07-30T14:41:09.062Z,2.10
2022-07-30T14:43:36.460Z,2.20
2022-07-30T14:46:03.854Z,2.00
2022-07-30T14:48:31.072Z,2.00
2022-07-30T14:51:14.456Z,2.00
2022-07-30T14:53:47.229Z,2.00
2022-07-30T14:56:14.841Z,2.60
2022-07-30T14:58:45.064Z,2.10
2022-07-30T15:01:16.373Z,2.00
2022-07-30T15:03:47.858Z,2.20
2022-07-30T15:06:17.981Z,2.30
2022-07-30T15:08:46.273Z,2.30
2022-07-30T15:11:13.510Z,2.30
2022-07-30T15:13:50.588Z,2.20
2022-07-30T15:16:19.336Z,2.20
2022-07-30T15:18:46.650Z,2.10
2022-07-30T15:21:14.393Z,2.30
2022-07-30T15:23:41.894Z,2.00
2022-07-30T15:26:09.409Z,2.30
2022-07-30T15:28:36.661Z,2.20
2022-07-30T15:31:04.532Z,2.10
2022-07-30T15:33:36.955Z,2.50
2022-07-30T15:36:05.046Z,2.40
2022-07-30T15:38:32.326Z,2.50
2022-07-30T15:41:00.133Z,2.30
2022-07-30T15:43:27.386Z,2.40
2022-07-30T15:45:56.206Z,2.30
2022-07-30T15:48:27.265Z,2.10
2022-07-30T15:51:03.537Z,2.90
2022-07-30T15:53:32.328Z,2.40
2022-07-30T15:56:00.405Z,3.10
2022-07-30T15:58:27.960Z,2.40
2022-07-30T16:00:55.380Z,2.40
2022-07-30T16:03:23.279Z,2.60
2022-07-30T16:05:51.162Z,2.50
2022-07-30T16:08:19.117Z,2.30
2022-07-30T16:10:46.366Z,2.20
2022-07-30T16:13:13.664Z,2.40
2022-07-30T16:15:40.874Z,2.50
2022-07-30T16:18:08.531Z,2.20
2022-07-30T16:20:35.782Z,1.90
2022-07-30T16:23:03.039Z,2.50
2022-07-30T16:25:30.394Z,2.40
2022-07-30T16:27:58.155Z,2.40
2022-07-30T16:30:27.512Z,2.30
2022-07-30T16:32:56.532Z,2.30
2022-07-30T16:35:24.217Z,2.50
2022-07-30T16:37:51.467Z,2.40
2022-07-30T16:40:18.834Z,2.50
2022-07-30T16:42:45.966Z,2.30
2022-07-30T16:45:13.219Z,2.50
2022-07-30T16:47:40.410Z,2.50
2022-07-30T16:50:08.646Z,2.40
2022-07-30T16:52:35.897Z,2.60
2022-07-30T16:55:03.308Z,2.50
2022-07-30T16:57:30.439Z,2.60
2022-07-30T16:59:57.656Z,2.40
2022-07-30T17:02:25.219Z,2.40
2022-07-30T17:04:52.568Z,2.40
2022-07-30T17:07:19.818Z,2.30
2022-07-30T17:09:52.475Z,2.40
2022-07-30T17:12:23.279Z,2.90
2022-07-30T17:14:52.840Z,2.60
2022-07-30T17:17:19.930Z,2.50
2022-07-30T17:19:47.137Z,2.50
2022-07-30T17:22:14.390Z,3.00
2022-07-30T17:24:41.744Z,2.60
2022-07-30T17:27:09.098Z,2.20
2022-07-30T17:29:48.402Z,2.40
2022-07-30T17:32:19.271Z,2.30
2022-07-30T17:34:47.698Z,2.40
2022-07-30T17:37:15.727Z,2.60
2022-07-30T17:40:27.064Z,2.40
2022-07-30T17:42:30.396Z,2.90
2022-07-30T17:44:58.161Z,2.40
2022-07-30T17:47:25.412Z,2.20
2022-07-30T17:49:52.566Z,2.20
2022-07-30T17:52:24.530Z,2.50
2022-07-30T17:54:53.730Z,2.50
2022-07-30T17:57:21.494Z,2.40
2022-07-30T17:59:48.951Z,2.40
2022-07-30T18:02:16.196Z,2.60
2022-07-30T18:04:43.442Z,2.70
2022-07-30T18:07:10.700Z,2.40
2022-07-30T18:09:40.214Z,2.40
2022-07-30T18:12:08.175Z,2.40
2022-07-30T18:14:35.631Z,2.40
2022-07-30T18:17:03.908Z,2.50
2022-07-30T18:19:31.465Z,2.70
2022-07-30T18:21:58.822Z,2.40
2022-07-30T18:26:57.328Z,2.70
2022-07-30T18:29:24.620Z,3.10
2022-07-30T18:31:51.822Z,3.00
2022-07-30T18:34:19.074Z,2.80
2022-07-30T18:36:49.133Z,2.70
2022-07-30T18:39:16.278Z,2.90
2022-07-30T18:41:43.595Z,2.90
2022-07-30T18:44:10.849Z,2.60
2022-07-30T18:46:38.103Z,2.40
2022-07-30T18:49:26.674Z,3.00
2022-07-30T18:51:52.989Z,3.00
2022-07-30T18:54:20.337Z,2.50
2022-07-30T18:56:47.423Z,2.50
2022-07-30T18:59:14.637Z,2.60
2022-07-30T19:01:41.822Z,2.80
2022-07-30T19:04:11.248Z,2.80
2022-07-30T19:06:38.659Z,2.90
2022-07-30T19:09:09.120Z,2.70
2022-07-30T19:11:44.412Z,2.50
2022-07-30T19:14:13.401Z,2.50
2022-07-30T19:16:42.084Z,2.80
2022-07-30T19:19:10.572Z,2.70
2022-07-30T19:21:37.642Z,2.80
2022-07-30T19:24:05.472Z,2.80
2022-07-30T19:26:32.675Z,2.60
2022-07-30T19:28:59.894Z,3.00
2022-07-30T19:31:27.586Z,2.90
2022-07-30T19:33:54.903Z,2.70
2022-07-30T19:36:22.051Z,2.70
2022-07-30T19:38:50.439Z,2.90
2022-07-30T19:41:17.889Z,2.90
2022-07-30T19:43:57.769Z,2.90
2022-07-30T19:46:25.841Z,3.20
2022-07-30T19:48:53.129Z,2.80
2022-07-30T19:51:25.078Z,3.20
2022-07-30T19:53:53.065Z,2.90
2022-07-30T19:56:20.345Z,2.90
2022-07-30T19:58:51.078Z,3.20
2022-07-30T20:01:18.332Z,3.00
2022-07-30T20:03:49.630Z,3.10
2022-07-30T20:06:18.776Z,3.00
2022-07-30T20:08:46.129Z,3.20
2022-07-30T20:11:21.374Z,2.80
2022-07-30T20:14:02.239Z,3.00
2022-07-30T20:16:29.799Z,3.40
2022-07-30T20:18:59.345Z,2.80
2022-07-30T20:21:56.742Z,2.90
2022-07-30T20:24:15.407Z,3.20
2022-07-30T20:26:42.767Z,3.30
2022-07-30T20:29:19.419Z,2.80
2022-07-30T20:32:00.604Z,2.70
2022-07-30T20:34:30.947Z,2.80
2022-07-30T20:37:13.895Z,3.20
2022-07-30T20:39:47.070Z,2.80
2022-07-30T20:42:16.397Z,3.00
2022-07-30T20:44:50.560Z,2.80
2022-07-30T20:47:34.309Z,3.30
2022-07-30T20:50:09.503Z,2.90
2022-07-30T20:52:41.304Z,2.80
2022-07-30T20:55:16.939Z,3.10
2022-07-30T20:57:57.080Z,3.00
2022-07-30T21:00:28.560Z,2.60
2022-07-30T21:02:55.814Z,2.90
2022-07-30T21:05:23.062Z,2.90
2022-07-30T21:07:54.819Z,2.60
2022-07-30T21:10:23.700Z,2.80
2022-07-30T21:12:53.255Z,2.80
2022-07-30T21:15:33.109Z,2.80
2022-07-30T21:18:01.870Z,2.70
2022-07-30T21:20:30.542Z,2.70
2022-07-30T21:23:11.586Z,2.70
2022-07-30T21:26:00.371Z,2.90
2022-07-30T21:28:29.469Z,3.20
2022-07-30T21:30:57.142Z,2.80
2022-07-30T21:33:26.997Z,2.90
2022-07-30T21:35:59.837Z,3.20
2022-07-30T21:38:28.727Z,2.80
2022-07-30T21:40:58.833Z,2.80
2022-07-30T21:43:29.895Z,3.00
2022-07-30T21:45:58.618Z,2.60
2022-07-30T21:48:26.935Z,3.00
2022-07-30T21:50:55.518Z,2.70
2022-07-30T21:53:29.443Z,2.80
2022-07-30T21:56:12.138Z,2.90
2022-07-30T21:58:39.506Z,3.10
2022-07-30T22:01:16.826Z,2.90
2022-07-30T22:04:01.405Z,3.30
2022-07-30T22:06:41.874Z,3.10
2022-07-30T22:09:19.689Z,3.10
2022-07-30T22:12:01.024Z,3.40
2022-07-30T22:14:29.984Z,2.80
2022-07-30T22:16:58.775Z,3.00
2022-07-30T22:19:26.530Z,2.80
2022-07-30T22:21:54.916Z,2.90
2022-07-30T22:24:29.490Z,2.90
2022-07-30T22:27:01.304Z,2.60
2022-07-30T22:29:34.106Z,3.00
2022-07-30T22:32:04.034Z,3.10
2022-07-30T22:34:32.827Z,3.20
2022-07-30T22:37:00.231Z,3.10
2022-07-30T22:39:31.909Z,2.80
2022-07-30T22:42:16.345Z,2.70
2022-07-30T22:44:45.883Z,3.20
2022-07-30T22:47:18.695Z,3.00
2022-07-30T22:49:51.977Z,2.70
2022-07-30T22:52:29.221Z,2.60
2022-07-30T22:57:37.939Z,2.30
2022-07-30T23:00:10.982Z,2.50
2022-07-30T23:02:40.302Z,2.70
2022-07-30T23:05:10.023Z,2.60
2022-07-30T23:07:39.461Z,2.60
2022-07-30T23:10:17.225Z,2.60
2022-07-30T23:12:51.435Z,2.40
2022-07-30T23:15:20.056Z,3.00
2022-07-30T23:17:48.118Z,2.40
2022-07-30T23:20:17.976Z,3.00
2022-07-30T23:22:45.304Z,2.70
2022-07-30T23:25:13.578Z,2.40
2022-07-30T23:27:41.947Z,2.40
2022-07-30T23:30:11.044Z,2.70
2022-07-30T23:32:40.236Z,2.80
2022-07-30T23:35:09.274Z,2.60
2022-07-30T23:37:48.599Z,2.90
2022-07-30T23:40:19.815Z,2.80
2022-07-30T23:42:47.880Z,2.70
2022-07-30T23:45:15.180Z,2.30
2022-07-30T23:47:56.595Z,2.40
2022-07-30T23:50:31.572Z,2.40
2022-07-30T23:52:59.319Z,2.40
2022-07-30T23:55:27.394Z,2.00
2022-07-30T23:57:55.452Z,2.50
